createdAt,value
2019-03-20T00:08:55.948Z,13
2019-03-20T00:18:55.164Z,13
2019-03-20T00:28:54.385Z,13
2019-03-20T00:38:53.597Z,12.3
2019-03-20T00:48:52.813Z,13.2
2019-03-20T00:58:52.030Z,12.8
2019-03-20T01:08:51.246Z,12.8
2019-03-20T01:18:50.461Z,12.7
2019-03-20T01:28:49.678Z,12.6
2019-03-20T01:39:02.590Z,12.6
2019-03-20T01:49:01.799Z,12.4
2019-03-20T01:59:01.021Z,13.1
2019-03-20T02:09:00.232Z,13.2
2019-03-20T02:18:59.449Z,13.2
2019-03-20T02:28:58.667Z,12.5
2019-03-20T02:38:57.899Z,12.9
2019-03-20T02:48:57.210Z,13
2019-03-20T02:58:56.527Z,12.8
2019-03-20T03:08:55.846Z,12.7
2019-03-20T03:18:55.165Z,12.9
2019-03-20T03:28:54.484Z,12.5
2019-03-20T03:38:53.755Z,12.9
2019-03-20T03:48:52.968Z,12.5
2019-03-20T03:58:52.185Z,12.6
2019-03-20T04:08:51.400Z,12.3
2019-03-20T04:18:50.625Z,12.8
2019-03-20T04:28:49.831Z,12.6
2019-03-20T04:38:49.048Z,13.1
2019-03-20T04:48:48.261Z,13.2
2019-03-20T04:58:47.476Z,12.6
2019-03-20T05:08:46.690Z,13
2019-03-20T05:18:45.907Z,12.8
2019-03-20T05:28:45.119Z,14.2
2019-03-20T05:38:44.335Z,14.7
2019-03-20T05:48:43.550Z,13.7
2019-03-20T05:58:42.768Z,14.5
2019-03-20T06:08:41.985Z,14.4
2019-03-20T06:18:41.200Z,14.4
2019-03-20T06:28:40.417Z,14.5
2019-03-20T06:38:39.634Z,14.4
2019-03-20T06:48:38.856Z,14.1
2019-03-20T06:58:38.067Z,14.6
2019-03-20T07:08:37.285Z,14.7
2019-03-20T07:18:36.503Z,14.4
2019-03-20T07:28:35.717Z,14
2019-03-20T07:38:34.937Z,14.3
2019-03-20T07:48:34.154Z,14.4
2019-03-20T07:58:33.370Z,14.4
2019-03-20T08:08:32.582Z,14.2
2019-03-20T08:18:32.750Z,14.4
2019-03-20T08:28:31.965Z,14.5
2019-03-20T08:38:31.191Z,14.4
2019-03-20T08:48:30.399Z,13.8
2019-03-20T08:58:29.631Z,14.5
2019-03-20T09:08:29.937Z,14.2
2019-03-20T09:18:28.054Z,14.6
2019-03-20T09:28:27.267Z,14.6
2019-03-20T09:38:26.484Z,14.2
2019-03-20T09:48:25.700Z,14.2
2019-03-20T09:58:24.918Z,13.9
2019-03-20T10:08:24.134Z,14.7
2019-03-20T10:18:23.364Z,13.8
2019-03-20T10:28:22.566Z,14.6
2019-03-20T10:38:21.784Z,14.4
2019-03-20T10:48:20.999Z,13.8
2019-03-20T10:58:20.221Z,14.1
2019-03-20T11:08:19.446Z,14.2
2019-03-20T11:18:18.657Z,14.4
2019-03-20T11:28:17.866Z,14
2019-03-20T11:38:17.082Z,13.8
2019-03-20T11:48:16.299Z,14.7
2019-03-20T11:58:15.522Z,14.1
2019-03-20T12:08:14.738Z,14.5
2019-03-20T12:18:13.944Z,14
2019-03-20T12:28:13.163Z,14.3
2019-03-20T12:38:14.585Z,14.5
2019-03-20T12:48:11.594Z,14.4
2019-03-20T12:58:10.806Z,14.2
2019-03-20T13:08:10.020Z,13
2019-03-20T13:18:09.240Z,13.7
2019-03-20T13:28:08.448Z,13.5
2019-03-20T13:38:07.674Z,13.9
2019-03-20T13:48:06.883Z,13.8
2019-03-20T13:58:06.092Z,13.9
2019-03-20T14:08:05.305Z,12.9
2019-03-20T14:18:04.519Z,13.3
2019-03-20T14:28:03.734Z,12.9
2019-03-20T14:38:02.947Z,13
2019-03-20T14:48:02.163Z,13.5
2019-03-20T14:58:01.382Z,13.4
2019-03-20T15:08:00.648Z,12.5
2019-03-20T15:17:59.809Z,13.2
2019-03-20T15:27:59.016Z,13.1
2019-03-20T15:37:58.233Z,13.1
2019-03-20T15:47:57.448Z,12.5
2019-03-20T15:57:56.816Z,12.6
2019-03-20T16:07:55.884Z,12.6
2019-03-20T16:17:55.097Z,12.9
2019-03-20T16:27:54.318Z,12.9
2019-03-20T16:37:53.532Z,13.1
2019-03-20T16:47:52.751Z,12.7
2019-03-20T16:57:51.962Z,12.9
2019-03-20T17:07:51.177Z,13.1
2019-03-20T17:17:50.391Z,13
2019-03-20T17:27:49.610Z,12.6
2019-03-20T17:37:48.832Z,12.7
2019-03-20T17:47:48.039Z,12.7
2019-03-20T17:57:47.259Z,12.6
2019-03-20T18:07:46.486Z,13.1
2019-03-20T18:17:45.703Z,13.2
2019-03-20T18:27:44.920Z,12.5
2019-03-20T18:37:44.121Z,13.3
2019-03-20T18:47:43.340Z,12.6
2019-03-20T18:57:42.557Z,13
2019-03-20T19:07:41.787Z,13
2019-03-20T19:17:41.078Z,12.5
2019-03-20T19:27:40.304Z,12.7
2019-03-20T19:37:39.430Z,13.2
2019-03-20T19:47:38.650Z,12.5
2019-03-20T19:57:37.870Z,12.8
2019-03-20T20:07:37.092Z,13.1
2019-03-20T20:16:14.092Z,12.5
2019-03-20T20:26:13.311Z,12.8
2019-03-20T20:36:12.531Z,12.9
2019-03-20T20:46:11.747Z,13.2
2019-03-20T20:56:10.966Z,13.2
2019-03-20T21:01:03.411Z,13
2019-03-20T21:11:02.627Z,13.1
2019-03-20T21:21:01.845Z,13.2
2019-03-20T21:31:01.062Z,13.2
2019-03-20T21:41:00.279Z,13
2019-03-20T21:50:59.499Z,12.8
2019-03-20T22:00:58.721Z,12.6
2019-03-20T22:10:58.043Z,13.2
2019-03-20T22:20:57.363Z,12.6
2019-03-20T22:30:56.681Z,12.5
2019-03-20T22:35:58.726Z,12.5
2019-03-20T22:45:57.946Z,12.9
2019-03-20T22:55:57.162Z,12.5
2019-03-20T23:05:56.375Z,12.4
2019-03-20T23:15:55.593Z,12.9
2019-03-20T23:25:54.808Z,12.6
2019-03-20T23:35:54.046Z,13.2
2019-03-20T23:45:53.366Z,13.3
2019-03-20T23:55:52.683Z,12.8
